sensor_id;sensor_type;location;lat;lon;timestamp;temperature;humidity
68011;DHT22;54794;48.348;7.878;2023-02-22T00:00:59;9.10;55.30
68011;DHT22;54794;48.348;7.878;2023-02-22T00:03:32;9.00;55.30
68011;DHT22;54794;48.348;7.878;2023-02-22T00:06:02;9.00;55.40
68011;DHT22;54794;48.348;7.878;2023-02-22T00:08:39;9.10;55.50
68011;DHT22;54794;48.348;7.878;2023-02-22T00:11:07;9.00;56.30
68011;DHT22;54794;48.348;7.878;2023-02-22T00:13:36;9.00;55.60
68011;DHT22;54794;48.348;7.878;2023-02-22T00:16:04;9.00;55.50
68011;DHT22;54794;48.348;7.878;2023-02-22T00:18:31;8.90;55.30
68011;DHT22;54794;48.348;7.878;2023-02-22T00:20:59;8.90;55.80
68011;DHT22;54794;48.348;7.878;2023-02-22T00:23:28;9.00;55.50
68011;DHT22;54794;48.348;7.878;2023-02-22T00:25:58;8.80;55.70
68011;DHT22;54794;48.348;7.878;2023-02-22T00:28:26;8.80;55.90
68011;DHT22;54794;48.348;7.878;2023-02-22T00:30:53;8.70;55.70
68011;DHT22;54794;48.348;7.878;2023-02-22T00:33:21;8.70;55.60
68011;DHT22;54794;48.348;7.878;2023-02-22T00:35:48;8.70;55.70
68011;DHT22;54794;48.348;7.878;2023-02-22T00:38:17;8.60;55.70
68011;DHT22;54794;48.348;7.878;2023-02-22T00:40:44;8.60;55.90
68011;DHT22;54794;48.348;7.878;2023-02-22T00:43:12;8.60;56.10
68011;DHT22;54794;48.348;7.878;2023-02-22T00:45:40;9.00;56.50
68011;DHT22;54794;48.348;7.878;2023-02-22T00:48:08;8.70;56.30
68011;DHT22;54794;48.348;7.878;2023-02-22T00:50:35;8.70;56.10
68011;DHT22;54794;48.348;7.878;2023-02-22T00:53:03;8.80;56.10
68011;DHT22;54794;48.348;7.878;2023-02-22T00:55:33;8.70;56.10
68011;DHT22;54794;48.348;7.878;2023-02-22T00:58:02;8.80;56.10
68011;DHT22;54794;48.348;7.878;2023-02-22T01:03:00;8.80;56.10
68011;DHT22;54794;48.348;7.878;2023-02-22T01:05:29;8.90;55.90
68011;DHT22;54794;48.348;7.878;2023-02-22T01:07:58;8.80;56.00
68011;DHT22;54794;48.348;7.878;2023-02-22T01:10:28;9.00;55.90
68011;DHT22;54794;48.348;7.878;2023-02-22T01:12:57;8.70;55.80
68011;DHT22;54794;48.348;7.878;2023-02-22T01:15:27;8.70;55.80
68011;DHT22;54794;48.348;7.878;2023-02-22T01:17:57;8.70;55.90
68011;DHT22;54794;48.348;7.878;2023-02-22T01:20:26;8.70;55.90
68011;DHT22;54794;48.348;7.878;2023-02-22T01:22:57;8.70;55.90
68011;DHT22;54794;48.348;7.878;2023-02-22T01:25:28;8.60;55.80
68011;DHT22;54794;48.348;7.878;2023-02-22T01:27:57;8.60;56.00
68011;DHT22;54794;48.348;7.878;2023-02-22T01:30:29;8.50;55.90
68011;DHT22;54794;48.348;7.878;2023-02-22T01:33:02;8.50;55.90
68011;DHT22;54794;48.348;7.878;2023-02-22T01:35:32;8.50;55.70
68011;DHT22;54794;48.348;7.878;2023-02-22T01:38:01;8.40;56.00
68011;DHT22;54794;48.348;7.878;2023-02-22T01:40:32;8.30;56.00
68011;DHT22;54794;48.348;7.878;2023-02-22T01:43:22;8.40;56.20
68011;DHT22;54794;48.348;7.878;2023-02-22T01:46:20;8.30;56.30
68011;DHT22;54794;48.348;7.878;2023-02-22T01:48:58;8.30;56.80
68011;DHT22;54794;48.348;7.878;2023-02-22T01:51:47;8.30;56.60
68011;DHT22;54794;48.348;7.878;2023-02-22T01:54:23;8.40;56.40
68011;DHT22;54794;48.348;7.878;2023-02-22T01:57:06;8.40;56.50
68011;DHT22;54794;48.348;7.878;2023-02-22T01:59:43;8.40;56.70
68011;DHT22;54794;48.348;7.878;2023-02-22T02:02:13;8.40;56.80
68011;DHT22;54794;48.348;7.878;2023-02-22T02:04:41;8.60;56.80
68011;DHT22;54794;48.348;7.878;2023-02-22T02:07:12;8.50;56.70
68011;DHT22;54794;48.348;7.878;2023-02-22T02:12:14;8.80;57.10
68011;DHT22;54794;48.348;7.878;2023-02-22T02:14:43;8.50;56.70
68011;DHT22;54794;48.348;7.878;2023-02-22T02:17:12;8.50;56.60
68011;DHT22;54794;48.348;7.878;2023-02-22T02:20:07;8.50;56.80
68011;DHT22;54794;48.348;7.878;2023-02-22T02:28:52;8.60;57.00
68011;DHT22;54794;48.348;7.878;2023-02-22T02:40:11;8.40;56.60
68011;DHT22;54794;48.348;7.878;2023-02-22T02:42:59;8.40;56.80
68011;DHT22;54794;48.348;7.878;2023-02-22T02:45:32;8.40;56.70
68011;DHT22;54794;48.348;7.878;2023-02-22T02:48:16;8.40;56.70
68011;DHT22;54794;48.348;7.878;2023-02-22T02:50:49;8.30;56.70
68011;DHT22;54794;48.348;7.878;2023-02-22T02:53:21;8.30;56.60
68011;DHT22;54794;48.348;7.878;2023-02-22T02:55:52;8.30;56.90
68011;DHT22;54794;48.348;7.878;2023-02-22T02:58:21;8.20;56.80
68011;DHT22;54794;48.348;7.878;2023-02-22T03:00:52;8.20;57.00
68011;DHT22;54794;48.348;7.878;2023-02-22T03:03:59;8.20;57.20
68011;DHT22;54794;48.348;7.878;2023-02-22T03:06:35;8.10;57.50
68011;DHT22;54794;48.348;7.878;2023-02-22T03:12:06;8.10;57.50
68011;DHT22;54794;48.348;7.878;2023-02-22T03:14:51;8.10;57.10
68011;DHT22;54794;48.348;7.878;2023-02-22T03:24:19;8.00;57.40
68011;DHT22;54794;48.348;7.878;2023-02-22T03:27:05;8.10;57.20
68011;DHT22;54794;48.348;7.878;2023-02-22T03:29:41;7.90;57.10
68011;DHT22;54794;48.348;7.878;2023-02-22T03:32:17;7.90;57.10
68011;DHT22;54794;48.348;7.878;2023-02-22T03:34:56;8.20;57.40
68011;DHT22;54794;48.348;7.878;2023-02-22T03:37:33;7.90;57.40
68011;DHT22;54794;48.348;7.878;2023-02-22T03:40:04;8.00;57.40
68011;DHT22;54794;48.348;7.878;2023-02-22T03:42:50;7.90;57.40
68011;DHT22;54794;48.348;7.878;2023-02-22T03:45:24;7.80;57.30
68011;DHT22;54794;48.348;7.878;2023-02-22T03:51:03;7.80;57.60
68011;DHT22;54794;48.348;7.878;2023-02-22T03:53:33;7.70;57.20
68011;DHT22;54794;48.348;7.878;2023-02-22T03:56:04;7.80;57.50
68011;DHT22;54794;48.348;7.878;2023-02-22T03:58:35;7.70;57.40
68011;DHT22;54794;48.348;7.878;2023-02-22T04:01:10;7.70;57.40
68011;DHT22;54794;48.348;7.878;2023-02-22T04:03:37;7.90;57.50
68011;DHT22;54794;48.348;7.878;2023-02-22T04:06:05;7.70;57.50
68011;DHT22;54794;48.348;7.878;2023-02-22T04:08:33;7.70;57.60
68011;DHT22;54794;48.348;7.878;2023-02-22T04:11:00;7.70;57.60
68011;DHT22;54794;48.348;7.878;2023-02-22T04:13:28;7.70;57.60
68011;DHT22;54794;48.348;7.878;2023-02-22T04:15:55;7.90;57.70
68011;DHT22;54794;48.348;7.878;2023-02-22T04:18:22;7.70;57.70
68011;DHT22;54794;48.348;7.878;2023-02-22T04:20:49;7.70;57.70
68011;DHT22;54794;48.348;7.878;2023-02-22T04:23:17;7.70;57.70
68011;DHT22;54794;48.348;7.878;2023-02-22T04:25:44;8.00;57.90
68011;DHT22;54794;48.348;7.878;2023-02-22T04:28:10;7.80;57.90
68011;DHT22;54794;48.348;7.878;2023-02-22T04:30:37;7.70;57.90
68011;DHT22;54794;48.348;7.878;2023-02-22T04:33:04;7.80;57.80
68011;DHT22;54794;48.348;7.878;2023-02-22T04:35:31;7.90;57.90
68011;DHT22;54794;48.348;7.878;2023-02-22T04:38:01;7.70;57.70
68011;DHT22;54794;48.348;7.878;2023-02-22T04:40:30;7.80;57.80
68011;DHT22;54794;48.348;7.878;2023-02-22T04:42:57;7.70;57.80
68011;DHT22;54794;48.348;7.878;2023-02-22T04:45:25;7.70;57.80
68011;DHT22;54794;48.348;7.878;2023-02-22T04:47:52;7.60;57.70
68011;DHT22;54794;48.348;7.878;2023-02-22T04:50:19;7.60;57.80
68011;DHT22;54794;48.348;7.878;2023-02-22T04:52:46;7.60;57.80
68011;DHT22;54794;48.348;7.878;2023-02-22T04:55:13;7.80;57.90
68011;DHT22;54794;48.348;7.878;2023-02-22T04:57:42;7.80;57.90
68011;DHT22;54794;48.348;7.878;2023-02-22T05:00:09;7.60;57.90
68011;DHT22;54794;48.348;7.878;2023-02-22T05:02:39;7.50;57.80
68011;DHT22;54794;48.348;7.878;2023-02-22T05:05:06;7.50;58.20
68011;DHT22;54794;48.348;7.878;2023-02-22T05:07:33;7.40;58.20
68011;DHT22;54794;48.348;7.878;2023-02-22T05:10:00;7.50;58.20
68011;DHT22;54794;48.348;7.878;2023-02-22T05:12:28;7.40;58.20
68011;DHT22;54794;48.348;7.878;2023-02-22T05:14:55;7.30;58.20
68011;DHT22;54794;48.348;7.878;2023-02-22T05:17:22;7.50;58.40
68011;DHT22;54794;48.348;7.878;2023-02-22T05:19:49;7.30;58.30
68011;DHT22;54794;48.348;7.878;2023-02-22T05:22:16;7.30;58.70
68011;DHT22;54794;48.348;7.878;2023-02-22T05:24:43;7.30;58.40
68011;DHT22;54794;48.348;7.878;2023-02-22T05:27:10;7.50;58.60
68011;DHT22;54794;48.348;7.878;2023-02-22T05:29:38;7.30;58.40
68011;DHT22;54794;48.348;7.878;2023-02-22T05:32:05;7.30;58.50
68011;DHT22;54794;48.348;7.878;2023-02-22T05:34:32;7.50;58.60
68011;DHT22;54794;48.348;7.878;2023-02-22T05:36:59;7.30;58.60
68011;DHT22;54794;48.348;7.878;2023-02-22T05:39:26;7.80;58.70
68011;DHT22;54794;48.348;7.878;2023-02-22T05:41:53;7.50;58.60
68011;DHT22;54794;48.348;7.878;2023-02-22T05:44:20;7.30;59.00
68011;DHT22;54794;48.348;7.878;2023-02-22T05:46:46;7.40;58.60
68011;DHT22;54794;48.348;7.878;2023-02-22T05:49:14;7.30;58.60
68011;DHT22;54794;48.348;7.878;2023-02-22T05:51:41;7.20;58.50
68011;DHT22;54794;48.348;7.878;2023-02-22T05:54:08;7.20;58.60
68011;DHT22;54794;48.348;7.878;2023-02-22T05:56:35;7.60;58.70
68011;DHT22;54794;48.348;7.878;2023-02-22T05:59:02;7.30;58.60
68011;DHT22;54794;48.348;7.878;2023-02-22T06:01:29;7.70;58.70
68011;DHT22;54794;48.348;7.878;2023-02-22T06:03:56;7.70;58.90
68011;DHT22;54794;48.348;7.878;2023-02-22T06:06:23;7.30;58.60
68011;DHT22;54794;48.348;7.878;2023-02-22T06:08:50;7.20;58.70
68011;DHT22;54794;48.348;7.878;2023-02-22T06:11:17;7.20;58.60
68011;DHT22;54794;48.348;7.878;2023-02-22T06:13:52;7.10;58.60
68011;DHT22;54794;48.348;7.878;2023-02-22T06:16:20;7.10;58.90
68011;DHT22;54794;48.348;7.878;2023-02-22T06:18:49;7.10;58.70
68011;DHT22;54794;48.348;7.878;2023-02-22T06:21:16;7.50;59.00
68011;DHT22;54794;48.348;7.878;2023-02-22T06:23:43;7.60;59.10
68011;DHT22;54794;48.348;7.878;2023-02-22T06:26:10;7.40;59.00
68011;DHT22;54794;48.348;7.878;2023-02-22T06:28:37;7.20;58.90
68011;DHT22;54794;48.348;7.878;2023-02-22T06:31:04;7.20;58.90
68011;DHT22;54794;48.348;7.878;2023-02-22T06:33:31;7.70;59.20
68011;DHT22;54794;48.348;7.878;2023-02-22T06:35:58;7.40;59.10
68011;DHT22;54794;48.348;7.878;2023-02-22T06:38:25;7.80;59.30
68011;DHT22;54794;48.348;7.878;2023-02-22T06:40:53;7.50;59.00
68011;DHT22;54794;48.348;7.878;2023-02-22T06:43:23;7.20;58.80
68011;DHT22;54794;48.348;7.878;2023-02-22T06:45:51;7.20;58.90
68011;DHT22;54794;48.348;7.878;2023-02-22T06:48:18;7.20;59.00
68011;DHT22;54794;48.348;7.878;2023-02-22T06:50:45;7.30;59.00
68011;DHT22;54794;48.348;7.878;2023-02-22T06:53:12;7.20;59.10
68011;DHT22;54794;48.348;7.878;2023-02-22T06:55:39;7.20;59.00
68011;DHT22;54794;48.348;7.878;2023-02-22T06:58:06;7.40;59.40
68011;DHT22;54794;48.348;7.878;2023-02-22T07:00:33;7.30;59.10
68011;DHT22;54794;48.348;7.878;2023-02-22T07:03:00;7.10;59.00
68011;DHT22;54794;48.348;7.878;2023-02-22T07:05:29;7.10;59.10
68011;DHT22;54794;48.348;7.878;2023-02-22T07:08:03;7.10;59.10
68011;DHT22;54794;48.348;7.878;2023-02-22T07:10:34;7.10;59.40
68011;DHT22;54794;48.348;7.878;2023-02-22T07:13:03;7.10;59.90
68011;DHT22;54794;48.348;7.878;2023-02-22T07:15:33;7.10;59.50
68011;DHT22;54794;48.348;7.878;2023-02-22T07:18:00;7.20;59.50
68011;DHT22;54794;48.348;7.878;2023-02-22T07:20:29;7.30;59.60
68011;DHT22;54794;48.348;7.878;2023-02-22T07:22:58;7.30;59.70
68011;DHT22;54794;48.348;7.878;2023-02-22T07:25:25;7.60;59.80
68011;DHT22;54794;48.348;7.878;2023-02-22T07:27:52;7.30;59.70
68011;DHT22;54794;48.348;7.878;2023-02-22T07:30:21;7.40;59.80
68011;DHT22;54794;48.348;7.878;2023-02-22T07:32:58;7.50;59.90
68011;DHT22;54794;48.348;7.878;2023-02-22T07:35:29;7.50;59.80
68011;DHT22;54794;48.348;7.878;2023-02-22T07:38:03;7.60;59.90
68011;DHT22;54794;48.348;7.878;2023-02-22T07:40:35;7.60;59.80
68011;DHT22;54794;48.348;7.878;2023-02-22T07:43:19;7.70;59.80
68011;DHT22;54794;48.348;7.878;2023-02-22T07:45:49;7.70;60.30
68011;DHT22;54794;48.348;7.878;2023-02-22T07:48:19;7.80;59.90
68011;DHT22;54794;48.348;7.878;2023-02-22T07:50:48;8.00;60.10
68011;DHT22;54794;48.348;7.878;2023-02-22T07:53:21;7.90;60.00
68011;DHT22;54794;48.348;7.878;2023-02-22T07:55:57;8.60;60.40
68011;DHT22;54794;48.348;7.878;2023-02-22T07:58:26;8.20;60.10
68011;DHT22;54794;48.348;7.878;2023-02-22T08:00:55;8.20;60.00
68011;DHT22;54794;48.348;7.878;2023-02-22T08:03:23;8.20;60.00
68011;DHT22;54794;48.348;7.878;2023-02-22T08:06:28;8.20;60.20
68011;DHT22;54794;48.348;7.878;2023-02-22T08:08:58;8.50;59.70
68011;DHT22;54794;48.348;7.878;2023-02-22T08:11:26;8.40;59.80
68011;DHT22;54794;48.348;7.878;2023-02-22T08:13:52;8.60;60.40
68011;DHT22;54794;48.348;7.878;2023-02-22T08:16:19;8.70;59.90
68011;DHT22;54794;48.348;7.878;2023-02-22T08:19:15;8.70;60.00
68011;DHT22;54794;48.348;7.878;2023-02-22T08:21:42;8.60;60.30
68011;DHT22;54794;48.348;7.878;2023-02-22T08:24:10;8.70;60.00
68011;DHT22;54794;48.348;7.878;2023-02-22T08:26:47;8.80;60.10
68011;DHT22;54794;48.348;7.878;2023-02-22T08:29:14;8.80;60.40
68011;DHT22;54794;48.348;7.878;2023-02-22T08:32:01;8.90;60.10
68011;DHT22;54794;48.348;7.878;2023-02-22T08:34:29;9.00;61.10
68011;DHT22;54794;48.348;7.878;2023-02-22T08:36:59;9.10;60.20
68011;DHT22;54794;48.348;7.878;2023-02-22T08:39:26;9.20;60.20
68011;DHT22;54794;48.348;7.878;2023-02-22T08:41:53;9.30;60.20
68011;DHT22;54794;48.348;7.878;2023-02-22T08:44:20;9.50;60.30
68011;DHT22;54794;48.348;7.878;2023-02-22T08:46:49;9.50;60.20
68011;DHT22;54794;48.348;7.878;2023-02-22T08:49:17;9.50;60.10
68011;DHT22;54794;48.348;7.878;2023-02-22T08:51:45;9.60;60.10
68011;DHT22;54794;48.348;7.878;2023-02-22T08:54:12;9.90;60.30
68011;DHT22;54794;48.348;7.878;2023-02-22T08:56:39;9.80;60.10
68011;DHT22;54794;48.348;7.878;2023-02-22T08:59:06;9.80;60.20
68011;DHT22;54794;48.348;7.878;2023-02-22T09:01:33;9.90;60.20
68011;DHT22;54794;48.348;7.878;2023-02-22T09:04:01;10.00;60.30
68011;DHT22;54794;48.348;7.878;2023-02-22T09:06:29;10.10;60.50
68011;DHT22;54794;48.348;7.878;2023-02-22T09:08:56;10.20;60.50
68011;DHT22;54794;48.348;7.878;2023-02-22T09:11:23;10.30;60.80
68011;DHT22;54794;48.348;7.878;2023-02-22T09:13:50;10.40;60.30
68011;DHT22;54794;48.348;7.878;2023-02-22T09:16:16;10.50;60.40
68011;DHT22;54794;48.348;7.878;2023-02-22T09:18:43;10.60;60.30
68011;DHT22;54794;48.348;7.878;2023-02-22T09:21:17;10.70;60.40
68011;DHT22;54794;48.348;7.878;2023-02-22T09:23:46;10.80;60.30
68011;DHT22;54794;48.348;7.878;2023-02-22T09:26:19;10.90;60.40
68011;DHT22;54794;48.348;7.878;2023-02-22T09:28:49;11.00;60.50
68011;DHT22;54794;48.348;7.878;2023-02-22T09:31:16;11.10;60.30
68011;DHT22;54794;48.348;7.878;2023-02-22T09:33:52;11.20;60.30
68011;DHT22;54794;48.348;7.878;2023-02-22T09:36:19;11.30;60.20
68011;DHT22;54794;48.348;7.878;2023-02-22T09:38:47;11.40;60.10
68011;DHT22;54794;48.348;7.878;2023-02-22T09:41:34;11.50;60.40
68011;DHT22;54794;48.348;7.878;2023-02-22T10:05:22;12.40;59.30
68011;DHT22;54794;48.348;7.878;2023-02-22T10:08:00;12.20;59.10
68011;DHT22;54794;48.348;7.878;2023-02-22T10:10:40;12.20;59.00
68011;DHT22;54794;48.348;7.878;2023-02-22T10:16:45;12.40;59.00
68011;DHT22;54794;48.348;7.878;2023-02-22T10:22:15;12.60;58.90
68011;DHT22;54794;48.348;7.878;2023-02-22T10:27:36;12.70;58.80
68011;DHT22;54794;48.348;7.878;2023-02-22T10:30:48;12.80;59.20
68011;DHT22;54794;48.348;7.878;2023-02-22T10:33:22;12.90;58.80
68011;DHT22;54794;48.348;7.878;2023-02-22T10:35:53;13.00;58.50
68011;DHT22;54794;48.348;7.878;2023-02-22T10:38:29;13.20;58.70
68011;DHT22;54794;48.348;7.878;2023-02-22T10:43:40;13.40;58.70
68011;DHT22;54794;48.348;7.878;2023-02-22T10:46:14;13.50;58.70
68011;DHT22;54794;48.348;7.878;2023-02-22T10:48:47;13.60;58.70
68011;DHT22;54794;48.348;7.878;2023-02-22T10:51:19;13.60;58.70
68011;DHT22;54794;48.348;7.878;2023-02-22T10:53:57;13.80;58.80
68011;DHT22;54794;48.348;7.878;2023-02-22T10:56:53;13.90;58.90
68011;DHT22;54794;48.348;7.878;2023-02-22T10:59:40;14.00;59.00
68011;DHT22;54794;48.348;7.878;2023-02-22T11:02:18;14.10;58.90
68011;DHT22;54794;48.348;7.878;2023-02-22T11:05:03;14.30;59.00
68011;DHT22;54794;48.348;7.878;2023-02-22T11:07:33;14.40;59.00
68011;DHT22;54794;48.348;7.878;2023-02-22T11:10:06;14.50;58.90
68011;DHT22;54794;48.348;7.878;2023-02-22T11:12:39;14.60;58.90
68011;DHT22;54794;48.348;7.878;2023-02-22T11:17:44;14.80;58.70
68011;DHT22;54794;48.348;7.878;2023-02-22T11:20:33;14.90;58.50
68011;DHT22;54794;48.348;7.878;2023-02-22T11:31:31;15.20;58.40
68011;DHT22;54794;48.348;7.878;2023-02-22T11:34:00;15.30;58.80
68011;DHT22;54794;48.348;7.878;2023-02-22T11:36:40;15.40;58.30
68011;DHT22;54794;48.348;7.878;2023-02-22T11:39:27;15.40;58.20
68011;DHT22;54794;48.348;7.878;2023-02-22T11:42:26;15.40;58.20
68011;DHT22;54794;48.348;7.878;2023-02-22T11:49:02;15.50;58.00
68011;DHT22;54794;48.348;7.878;2023-02-22T11:51:55;15.70;57.90
68011;DHT22;54794;48.348;7.878;2023-02-22T11:54:51;15.70;57.70
68011;DHT22;54794;48.348;7.878;2023-02-22T11:57:53;15.80;57.70
68011;DHT22;54794;48.348;7.878;2023-02-22T12:07:09;15.90;57.50
68011;DHT22;54794;48.348;7.878;2023-02-22T12:10:19;15.90;57.70
68011;DHT22;54794;48.348;7.878;2023-02-22T12:19:36;16.00;57.40
68011;DHT22;54794;48.348;7.878;2023-02-22T12:22:26;16.10;57.30
68011;DHT22;54794;48.348;7.878;2023-02-22T12:27:56;16.10;57.10
68011;DHT22;54794;48.348;7.878;2023-02-22T12:30:32;16.10;57.20
68011;DHT22;54794;48.348;7.878;2023-02-22T12:33:13;16.10;57.30
68011;DHT22;54794;48.348;7.878;2023-02-22T12:35:50;16.10;57.40
68011;DHT22;54794;48.348;7.878;2023-02-22T12:38:39;16.20;57.40
68011;DHT22;54794;48.348;7.878;2023-02-22T12:41:36;16.20;57.50
68011;DHT22;54794;48.348;7.878;2023-02-22T12:44:17;16.30;57.50
68011;DHT22;54794;48.348;7.878;2023-02-22T12:46:52;16.40;57.50
68011;DHT22;54794;48.348;7.878;2023-02-22T12:49:44;16.40;57.40
68011;DHT22;54794;48.348;7.878;2023-02-22T12:52:43;16.50;57.30
68011;DHT22;54794;48.348;7.878;2023-02-22T12:55:49;16.60;57.20
68011;DHT22;54794;48.348;7.878;2023-02-22T12:58:39;16.70;57.30
68011;DHT22;54794;48.348;7.878;2023-02-22T13:01:16;16.70;57.20
68011;DHT22;54794;48.348;7.878;2023-02-22T13:03:46;16.80;57.20
68011;DHT22;54794;48.348;7.878;2023-02-22T13:12:15;16.90;56.90
68011;DHT22;54794;48.348;7.878;2023-02-22T13:14:58;17.00;56.80
68011;DHT22;54794;48.348;7.878;2023-02-22T13:20:28;17.10;56.10
68011;DHT22;54794;48.348;7.878;2023-02-22T13:23:15;17.10;56.40
68011;DHT22;54794;48.348;7.878;2023-02-22T13:25:57;17.10;56.40
68011;DHT22;54794;48.348;7.878;2023-02-22T13:28:42;17.10;56.50
68011;DHT22;54794;48.348;7.878;2023-02-22T13:31:35;17.10;56.40
68011;DHT22;54794;48.348;7.878;2023-02-22T13:47:01;17.10;56.30
68011;DHT22;54794;48.348;7.878;2023-02-22T13:52:44;17.00;56.00
68011;DHT22;54794;48.348;7.878;2023-02-22T13:55:19;17.00;56.30
68011;DHT22;54794;48.348;7.878;2023-02-22T13:58:04;17.00;56.20
68011;DHT22;54794;48.348;7.878;2023-02-22T14:11:38;17.10;56.20
68011;DHT22;54794;48.348;7.878;2023-02-22T14:16:31;17.10;56.20
68011;DHT22;54794;48.348;7.878;2023-02-22T14:19:17;17.10;56.10
68011;DHT22;54794;48.348;7.878;2023-02-22T14:21:56;17.10;56.10
68011;DHT22;54794;48.348;7.878;2023-02-22T14:25:40;17.10;55.90
68011;DHT22;54794;48.348;7.878;2023-02-22T14:31:20;17.20;55.70
68011;DHT22;54794;48.348;7.878;2023-02-22T14:34:19;17.10;55.90
68011;DHT22;54794;48.348;7.878;2023-02-22T14:37:03;17.10;55.70
68011;DHT22;54794;48.348;7.878;2023-02-22T14:39:59;17.20;56.40
68011;DHT22;54794;48.348;7.878;2023-02-22T14:47:30;17.20;55.80
68011;DHT22;54794;48.348;7.878;2023-02-22T14:51:02;17.20;55.90
68011;DHT22;54794;48.348;7.878;2023-02-22T14:58:22;17.20;55.40
68011;DHT22;54794;48.348;7.878;2023-02-22T15:01:33;17.20;55.60
68011;DHT22;54794;48.348;7.878;2023-02-22T15:07:59;17.10;55.30
68011;DHT22;54794;48.348;7.878;2023-02-22T15:16:00;17.10;55.20
68011;DHT22;54794;48.348;7.878;2023-02-22T15:33:40;17.20;55.60
68011;DHT22;54794;48.348;7.878;2023-02-22T15:36:13;17.10;55.30
68011;DHT22;54794;48.348;7.878;2023-02-22T15:38:50;17.10;55.30
68011;DHT22;54794;48.348;7.878;2023-02-22T15:41:41;17.00;55.10
68011;DHT22;54794;48.348;7.878;2023-02-22T16:00:26;16.80;55.00
68011;DHT22;54794;48.348;7.878;2023-02-22T16:07:06;16.70;55.10
68011;DHT22;54794;48.348;7.878;2023-02-22T16:14:27;16.60;55.20
68011;DHT22;54794;48.348;7.878;2023-02-22T16:37:27;16.30;55.60
68011;DHT22;54794;48.348;7.878;2023-02-22T16:43:53;16.10;55.70
68011;DHT22;54794;48.348;7.878;2023-02-22T16:47:08;16.20;55.80
68011;DHT22;54794;48.348;7.878;2023-02-22T16:49:51;16.10;55.80
68011;DHT22;54794;48.348;7.878;2023-02-22T16:52:55;16.10;56.00
68011;DHT22;54794;48.348;7.878;2023-02-22T16:56:29;16.00;55.90
68011;DHT22;54794;48.348;7.878;2023-02-22T16:59:32;15.90;55.90
68011;DHT22;54794;48.348;7.878;2023-02-22T17:02:04;16.00;56.10
68011;DHT22;54794;48.348;7.878;2023-02-22T17:04:35;16.00;56.10
68011;DHT22;54794;48.348;7.878;2023-02-22T17:07:02;15.90;56.10
68011;DHT22;54794;48.348;7.878;2023-02-22T17:09:31;15.90;56.20
68011;DHT22;54794;48.348;7.878;2023-02-22T17:11:58;15.80;56.20
68011;DHT22;54794;48.348;7.878;2023-02-22T17:14:31;15.80;56.30
68011;DHT22;54794;48.348;7.878;2023-02-22T17:17:00;15.80;56.40
68011;DHT22;54794;48.348;7.878;2023-02-22T17:19:27;15.80;56.40
68011;DHT22;54794;48.348;7.878;2023-02-22T17:24:48;15.80;56.50
68011;DHT22;54794;48.348;7.878;2023-02-22T17:27:15;15.70;56.50
68011;DHT22;54794;48.348;7.878;2023-02-22T17:29:42;15.70;56.50
68011;DHT22;54794;48.348;7.878;2023-02-22T17:32:11;15.70;56.50
68011;DHT22;54794;48.348;7.878;2023-02-22T17:34:38;15.60;56.50
68011;DHT22;54794;48.348;7.878;2023-02-22T17:37:06;15.60;56.60
68011;DHT22;54794;48.348;7.878;2023-02-22T17:39:33;15.60;56.60
68011;DHT22;54794;48.348;7.878;2023-02-22T17:41:59;15.60;56.60
68011;DHT22;54794;48.348;7.878;2023-02-22T17:44:27;15.60;56.60
68011;DHT22;54794;48.348;7.878;2023-02-22T17:46:55;15.50;56.50
68011;DHT22;54794;48.348;7.878;2023-02-22T17:49:22;15.50;56.60
68011;DHT22;54794;48.348;7.878;2023-02-22T17:51:52;15.50;56.70
68011;DHT22;54794;48.348;7.878;2023-02-22T17:54:35;15.50;56.70
68011;DHT22;54794;48.348;7.878;2023-02-22T17:57:04;15.40;56.70
68011;DHT22;54794;48.348;7.878;2023-02-22T17:59:36;15.40;56.70
68011;DHT22;54794;48.348;7.878;2023-02-22T18:02:06;15.30;56.70
68011;DHT22;54794;48.348;7.878;2023-02-22T18:04:34;15.40;56.90
68011;DHT22;54794;48.348;7.878;2023-02-22T18:07:03;15.40;57.40
68011;DHT22;54794;48.348;7.878;2023-02-22T18:09:30;15.30;56.90
68011;DHT22;54794;48.348;7.878;2023-02-22T18:11:58;15.30;56.90
68011;DHT22;54794;48.348;7.878;2023-02-22T18:14:25;15.30;56.90
68011;DHT22;54794;48.348;7.878;2023-02-22T18:16:52;15.30;57.00
68011;DHT22;54794;48.348;7.878;2023-02-22T18:19:18;15.20;56.90
68011;DHT22;54794;48.348;7.878;2023-02-22T18:21:48;15.30;57.00
68011;DHT22;54794;48.348;7.878;2023-02-22T18:24:15;15.20;57.00
68011;DHT22;54794;48.348;7.878;2023-02-22T18:26:42;15.20;57.10
68011;DHT22;54794;48.348;7.878;2023-02-22T18:29:09;15.20;57.20
68011;DHT22;54794;48.348;7.878;2023-02-22T18:31:37;15.20;57.20
68011;DHT22;54794;48.348;7.878;2023-02-22T18:34:05;15.20;57.30
68011;DHT22;54794;48.348;7.878;2023-02-22T18:36:32;15.10;57.30
68011;DHT22;54794;48.348;7.878;2023-02-22T18:39:00;15.10;57.40
68011;DHT22;54794;48.348;7.878;2023-02-22T18:41:26;15.10;57.90
68011;DHT22;54794;48.348;7.878;2023-02-22T18:43:54;15.10;57.50
68011;DHT22;54794;48.348;7.878;2023-02-22T18:46:28;15.00;57.40
68011;DHT22;54794;48.348;7.878;2023-02-22T18:49:00;15.00;57.50
68011;DHT22;54794;48.348;7.878;2023-02-22T18:51:29;15.00;57.70
68011;DHT22;54794;48.348;7.878;2023-02-22T18:54:05;15.00;57.60
68011;DHT22;54794;48.348;7.878;2023-02-22T18:56:34;14.90;57.80
68011;DHT22;54794;48.348;7.878;2023-02-22T18:59:07;14.90;57.80
68011;DHT22;54794;48.348;7.878;2023-02-22T19:01:40;14.90;57.70
68011;DHT22;54794;48.348;7.878;2023-02-22T19:04:17;14.80;57.70
68011;DHT22;54794;48.348;7.878;2023-02-22T19:06:44;14.80;58.00
68011;DHT22;54794;48.348;7.878;2023-02-22T19:09:53;14.80;57.90
68011;DHT22;54794;48.348;7.878;2023-02-22T19:12:20;15.00;58.20
68011;DHT22;54794;48.348;7.878;2023-02-22T19:15:14;14.80;58.40
68011;DHT22;54794;48.348;7.878;2023-02-22T19:17:45;14.70;58.10
68011;DHT22;54794;48.348;7.878;2023-02-22T19:20:15;14.70;58.00
68011;DHT22;54794;48.348;7.878;2023-02-22T19:22:50;14.70;58.10
68011;DHT22;54794;48.348;7.878;2023-02-22T19:25:19;14.70;58.10
68011;DHT22;54794;48.348;7.878;2023-02-22T19:27:46;14.70;58.10
68011;DHT22;54794;48.348;7.878;2023-02-22T19:30:18;14.60;58.20
68011;DHT22;54794;48.348;7.878;2023-02-22T19:32:47;14.60;58.20
68011;DHT22;54794;48.348;7.878;2023-02-22T19:35:15;14.60;58.30
68011;DHT22;54794;48.348;7.878;2023-02-22T19:37:55;14.60;58.30
68011;DHT22;54794;48.348;7.878;2023-02-22T19:40:22;14.50;58.30
68011;DHT22;54794;48.348;7.878;2023-02-22T19:42:57;14.50;58.40
68011;DHT22;54794;48.348;7.878;2023-02-22T19:45:27;14.50;58.80
68011;DHT22;54794;48.348;7.878;2023-02-22T19:47:54;14.50;58.50
68011;DHT22;54794;48.348;7.878;2023-02-22T19:50:21;14.50;58.70
68011;DHT22;54794;48.348;7.878;2023-02-22T19:52:53;14.50;58.70
68011;DHT22;54794;48.348;7.878;2023-02-22T19:55:25;14.40;58.90
68011;DHT22;54794;48.348;7.878;2023-02-22T19:58:00;14.40;58.70
68011;DHT22;54794;48.348;7.878;2023-02-22T20:00:27;14.40;59.00
68011;DHT22;54794;48.348;7.878;2023-02-22T20:03:01;14.40;58.90
68011;DHT22;54794;48.348;7.878;2023-02-22T20:05:40;14.40;58.90